sensor_id;sensor_type;location;lat;lon;timestamp;P1;durP1;ratioP1;P2;durP2;ratioP2
63087;SDS011;49173;43.164;27.786;2022-07-24T04:48:33;7.55;;;4.50;;
63087;SDS011;49173;43.164;27.786;2022-07-24T04:50:58;13.93;;;4.30;;
63087;SDS011;49173;43.164;27.786;2022-07-24T04:53:24;9.27;;;4.70;;
63087;SDS011;49173;43.164;27.786;2022-07-24T04:55:50;10.18;;;4.85;;
63087;SDS011;49173;43.164;27.786;2022-07-24T04:58:16;6.63;;;3.85;;
63087;SDS011;49173;43.164;27.786;2022-07-24T05:00:41;13.93;;;4.32;;
63087;SDS011;49173;43.164;27.786;2022-07-24T05:03:07;9.93;;;4.13;;
63087;SDS011;49173;43.164;27.786;2022-07-24T05:05:33;9.38;;;4.38;;
63087;SDS011;49173;43.164;27.786;2022-07-24T05:07:59;8.20;;;4.32;;
63087;SDS011;49173;43.164;27.786;2022-07-24T05:10:25;9.13;;;4.22;;
63087;SDS011;49173;43.164;27.786;2022-07-24T05:12:50;14.38;;;4.43;;
63087;SDS011;49173;43.164;27.786;2022-07-24T05:15:16;9.13;;;4.78;;
63087;SDS011;49173;43.164;27.786;2022-07-24T05:17:42;8.00;;;4.57;;
63087;SDS011;49173;43.164;27.786;2022-07-24T05:20:08;7.65;;;4.25;;
63087;SDS011;49173;43.164;27.786;2022-07-24T05:22:34;7.13;;;4.50;;
63087;SDS011;49173;43.164;27.786;2022-07-24T05:25:00;9.63;;;4.22;;
63087;SDS011;49173;43.164;27.786;2022-07-24T05:27:26;7.45;;;3.90;;
63087;SDS011;49173;43.164;27.786;2022-07-24T05:29:51;8.02;;;3.80;;
63087;SDS011;49173;43.164;27.786;2022-07-24T05:32:17;9.82;;;3.58;;
63087;SDS011;49173;43.164;27.786;2022-07-24T05:34:43;6.32;;;3.67;;
63087;SDS011;49173;43.164;27.786;2022-07-24T05:37:09;11.23;;;4.38;;
63087;SDS011;49173;43.164;27.786;2022-07-24T05:39:35;12.63;;;4.20;;
63087;SDS011;49173;43.164;27.786;2022-07-24T05:42:01;8.18;;;4.05;;
63087;SDS011;49173;43.164;27.786;2022-07-24T05:44:27;11.25;;;4.30;;
63087;SDS011;49173;43.164;27.786;2022-07-24T05:46:53;9.77;;;4.38;;
63087;SDS011;49173;43.164;27.786;2022-07-24T05:49:19;9.52;;;4.43;;
63087;SDS011;49173;43.164;27.786;2022-07-24T05:51:45;7.57;;;4.20;;
63087;SDS011;49173;43.164;27.786;2022-07-24T05:54:11;7.63;;;3.70;;
63087;SDS011;49173;43.164;27.786;2022-07-24T05:56:37;7.68;;;4.07;;
63087;SDS011;49173;43.164;27.786;2022-07-24T05:59:02;9.10;;;3.70;;
63087;SDS011;49173;43.164;27.786;2022-07-24T06:01:28;11.13;;;3.95;;
63087;SDS011;49173;43.164;27.786;2022-07-24T06:03:54;13.48;;;4.22;;
63087;SDS011;49173;43.164;27.786;2022-07-24T06:06:20;6.57;;;3.33;;
63087;SDS011;49173;43.164;27.786;2022-07-24T06:08:45;8.52;;;3.75;;
63087;SDS011;49173;43.164;27.786;2022-07-24T06:11:11;8.95;;;3.67;;
63087;SDS011;49173;43.164;27.786;2022-07-24T06:13:38;8.90;;;2.92;;
63087;SDS011;49173;43.164;27.786;2022-07-24T06:16:04;6.05;;;3.00;;
63087;SDS011;49173;43.164;27.786;2022-07-24T06:18:31;6.18;;;3.33;;
63087;SDS011;49173;43.164;27.786;2022-07-24T06:21:01;6.13;;;2.80;;
63087;SDS011;49173;43.164;27.786;2022-07-24T06:23:28;10.60;;;2.70;;
63087;SDS011;49173;43.164;27.786;2022-07-24T06:25:55;3.22;;;2.50;;
63087;SDS011;49173;43.164;27.786;2022-07-24T06:28:23;3.05;;;2.20;;
63087;SDS011;49173;43.164;27.786;2022-07-24T06:30:51;8.18;;;2.75;;
63087;SDS011;49173;43.164;27.786;2022-07-24T06:33:19;10.70;;;2.67;;
63087;SDS011;49173;43.164;27.786;2022-07-24T06:35:47;5.05;;;2.75;;
63087;SDS011;49173;43.164;27.786;2022-07-24T06:38:14;6.85;;;2.60;;
63087;SDS011;49173;43.164;27.786;2022-07-24T06:40:42;5.55;;;2.92;;
63087;SDS011;49173;43.164;27.786;2022-07-24T06:43:10;5.97;;;2.60;;
63087;SDS011;49173;43.164;27.786;2022-07-24T06:45:36;4.40;;;2.53;;
63087;SDS011;49173;43.164;27.786;2022-07-24T06:48:03;5.50;;;2.40;;
63087;SDS011;49173;43.164;27.786;2022-07-24T06:50:30;3.50;;;2.50;;
63087;SDS011;49173;43.164;27.786;2022-07-24T06:52:57;5.70;;;2.20;;
63087;SDS011;49173;43.164;27.786;2022-07-24T06:55:24;7.10;;;2.50;;
63087;SDS011;49173;43.164;27.786;2022-07-24T06:57:54;4.43;;;2.30;;
63087;SDS011;49173;43.164;27.786;2022-07-24T07:00:23;3.33;;;2.17;;
63087;SDS011;49173;43.164;27.786;2022-07-24T07:02:49;5.30;;;2.17;;
63087;SDS011;49173;43.164;27.786;2022-07-24T07:05:18;3.85;;;2.30;;
63087;SDS011;49173;43.164;27.786;2022-07-24T07:07:46;4.35;;;2.05;;
63087;SDS011;49173;43.164;27.786;2022-07-24T07:10:12;5.03;;;2.08;;
63087;SDS011;49173;43.164;27.786;2022-07-24T07:12:39;4.55;;;2.03;;
63087;SDS011;49173;43.164;27.786;2022-07-24T07:15:06;3.45;;;1.92;;
63087;SDS011;49173;43.164;27.786;2022-07-24T07:17:36;3.28;;;1.75;;
63087;SDS011;49173;43.164;27.786;2022-07-24T07:20:06;5.25;;;2.20;;
63087;SDS011;49173;43.164;27.786;2022-07-24T07:22:34;3.58;;;1.80;;
63087;SDS011;49173;43.164;27.786;2022-07-24T07:25:02;13.60;;;2.30;;
63087;SDS011;49173;43.164;27.786;2022-07-24T07:27:29;6.22;;;2.20;;
63087;SDS011;49173;43.164;27.786;2022-07-24T07:29:56;2.83;;;1.83;;
63087;SDS011;49173;43.164;27.786;2022-07-24T07:32:26;4.10;;;1.98;;
63087;SDS011;49173;43.164;27.786;2022-07-24T07:34:55;7.07;;;1.73;;
63087;SDS011;49173;43.164;27.786;2022-07-24T07:37:23;6.03;;;2.08;;
63087;SDS011;49173;43.164;27.786;2022-07-24T07:39:52;4.47;;;2.00;;
63087;SDS011;49173;43.164;27.786;2022-07-24T07:42:18;4.70;;;1.90;;
63087;SDS011;49173;43.164;27.786;2022-07-24T07:44:45;5.28;;;2.00;;
63087;SDS011;49173;43.164;27.786;2022-07-24T07:47:11;7.07;;;1.70;;
63087;SDS011;49173;43.164;27.786;2022-07-24T07:49:42;3.83;;;2.00;;
63087;SDS011;49173;43.164;27.786;2022-07-24T07:52:09;7.43;;;2.10;;
63087;SDS011;49173;43.164;27.786;2022-07-24T07:54:36;4.85;;;1.80;;
63087;SDS011;49173;43.164;27.786;2022-07-24T07:57:03;5.90;;;2.00;;
63087;SDS011;49173;43.164;27.786;2022-07-24T07:59:30;3.35;;;1.83;;
63087;SDS011;49173;43.164;27.786;2022-07-24T08:01:57;3.65;;;2.00;;
63087;SDS011;49173;43.164;27.786;2022-07-24T08:04:24;3.45;;;2.00;;
63087;SDS011;49173;43.164;27.786;2022-07-24T08:06:50;6.95;;;1.85;;
63087;SDS011;49173;43.164;27.786;2022-07-24T08:09:17;5.35;;;1.92;;
63087;SDS011;49173;43.164;27.786;2022-07-24T08:11:47;4.30;;;1.90;;
63087;SDS011;49173;43.164;27.786;2022-07-24T08:14:14;4.00;;;1.77;;
63087;SDS011;49173;43.164;27.786;2022-07-24T08:16:44;5.10;;;2.08;;
63087;SDS011;49173;43.164;27.786;2022-07-24T08:19:12;4.97;;;2.13;;
63087;SDS011;49173;43.164;27.786;2022-07-24T08:21:39;6.00;;;2.27;;
63087;SDS011;49173;43.164;27.786;2022-07-24T08:24:08;3.05;;;2.03;;
63087;SDS011;49173;43.164;27.786;2022-07-24T08:26:34;6.30;;;2.20;;
63087;SDS011;49173;43.164;27.786;2022-07-24T08:29:00;4.90;;;2.22;;
63087;SDS011;49173;43.164;27.786;2022-07-24T08:31:27;8.18;;;1.90;;
63087;SDS011;49173;43.164;27.786;2022-07-24T08:33:54;6.03;;;2.13;;
63087;SDS011;49173;43.164;27.786;2022-07-24T08:36:23;3.92;;;2.05;;
63087;SDS011;49173;43.164;27.786;2022-07-24T08:38:52;5.50;;;1.75;;
63087;SDS011;49173;43.164;27.786;2022-07-24T08:41:20;3.47;;;1.90;;
63087;SDS011;49173;43.164;27.786;2022-07-24T08:43:49;3.90;;;1.80;;
63087;SDS011;49173;43.164;27.786;2022-07-24T08:46:15;5.43;;;1.90;;
63087;SDS011;49173;43.164;27.786;2022-07-24T08:48:42;6.10;;;2.20;;
63087;SDS011;49173;43.164;27.786;2022-07-24T08:51:12;5.18;;;1.92;;
63087;SDS011;49173;43.164;27.786;2022-07-24T08:53:40;9.10;;;2.13;;
63087;SDS011;49173;43.164;27.786;2022-07-24T08:56:09;11.05;;;1.98;;
63087;SDS011;49173;43.164;27.786;2022-07-24T08:58:40;5.80;;;1.85;;
63087;SDS011;49173;43.164;27.786;2022-07-24T09:01:07;4.40;;;1.83;;
63087;SDS011;49173;43.164;27.786;2022-07-24T09:03:41;3.30;;;1.90;;
63087;SDS011;49173;43.164;27.786;2022-07-24T09:06:10;3.15;;;1.90;;
63087;SDS011;49173;43.164;27.786;2022-07-24T09:08:56;4.28;;;1.90;;
63087;SDS011;49173;43.164;27.786;2022-07-24T09:11:27;7.13;;;2.10;;
63087;SDS011;49173;43.164;27.786;2022-07-24T09:14:00;4.85;;;1.90;;
63087;SDS011;49173;43.164;27.786;2022-07-24T09:16:46;3.37;;;2.10;;
63087;SDS011;49173;43.164;27.786;2022-07-24T09:19:14;7.28;;;2.22;;
63087;SDS011;49173;43.164;27.786;2022-07-24T09:21:43;4.13;;;1.77;;
63087;SDS011;49173;43.164;27.786;2022-07-24T09:24:12;2.80;;;2.13;;
63087;SDS011;49173;43.164;27.786;2022-07-24T09:26:44;6.03;;;2.33;;
63087;SDS011;49173;43.164;27.786;2022-07-24T09:29:14;4.55;;;1.85;;
63087;SDS011;49173;43.164;27.786;2022-07-24T09:31:50;4.25;;;1.95;;
63087;SDS011;49173;43.164;27.786;2022-07-24T09:34:22;5.57;;;1.90;;
63087;SDS011;49173;43.164;27.786;2022-07-24T09:37:01;3.47;;;1.85;;
63087;SDS011;49173;43.164;27.786;2022-07-24T09:39:33;8.00;;;2.10;;
63087;SDS011;49173;43.164;27.786;2022-07-24T09:42:03;4.57;;;1.70;;
63087;SDS011;49173;43.164;27.786;2022-07-24T09:44:31;7.95;;;1.60;;
63087;SDS011;49173;43.164;27.786;2022-07-24T09:47:08;5.95;;;1.70;;
63087;SDS011;49173;43.164;27.786;2022-07-24T09:49:36;3.67;;;1.63;;
63087;SDS011;49173;43.164;27.786;2022-07-24T09:54:40;7.57;;;1.95;;
63087;SDS011;49173;43.164;27.786;2022-07-24T09:59:47;5.22;;;1.70;;
63087;SDS011;49173;43.164;27.786;2022-07-24T10:02:19;3.95;;;1.60;;
63087;SDS011;49173;43.164;27.786;2022-07-24T10:04:50;7.40;;;1.77;;
63087;SDS011;49173;43.164;27.786;2022-07-24T10:07:21;4.88;;;1.90;;
63087;SDS011;49173;43.164;27.786;2022-07-24T10:09:51;6.50;;;1.60;;
63087;SDS011;49173;43.164;27.786;2022-07-24T10:12:24;6.15;;;1.60;;
63087;SDS011;49173;43.164;27.786;2022-07-24T10:14:53;5.30;;;1.67;;
63087;SDS011;49173;43.164;27.786;2022-07-24T10:17:21;2.47;;;1.45;;
63087;SDS011;49173;43.164;27.786;2022-07-24T10:20:11;10.77;;;1.77;;
63087;SDS011;49173;43.164;27.786;2022-07-24T10:23:00;11.57;;;2.00;;
63087;SDS011;49173;43.164;27.786;2022-07-24T10:25:48;3.63;;;1.60;;
63087;SDS011;49173;43.164;27.786;2022-07-24T10:31:23;5.50;;;1.92;;
63087;SDS011;49173;43.164;27.786;2022-07-24T10:33:53;6.22;;;1.92;;
63087;SDS011;49173;43.164;27.786;2022-07-24T10:36:27;5.05;;;1.88;;
63087;SDS011;49173;43.164;27.786;2022-07-24T10:39:00;3.95;;;1.65;;
63087;SDS011;49173;43.164;27.786;2022-07-24T10:41:37;6.05;;;1.70;;
63087;SDS011;49173;43.164;27.786;2022-07-24T10:44:13;3.10;;;1.70;;
63087;SDS011;49173;43.164;27.786;2022-07-24T10:47:02;5.72;;;1.67;;
63087;SDS011;49173;43.164;27.786;2022-07-24T10:49:39;4.60;;;1.90;;
63087;SDS011;49173;43.164;27.786;2022-07-24T11:00:25;8.00;;;2.08;;
63087;SDS011;49173;43.164;27.786;2022-07-24T11:03:01;12.98;;;2.50;;
63087;SDS011;49173;43.164;27.786;2022-07-24T11:10:52;6.10;;;2.08;;
63087;SDS011;49173;43.164;27.786;2022-07-24T11:18:37;6.95;;;2.33;;
63087;SDS011;49173;43.164;27.786;2022-07-24T11:21:06;9.82;;;2.20;;
63087;SDS011;49173;43.164;27.786;2022-07-24T11:23:34;7.18;;;2.40;;
63087;SDS011;49173;43.164;27.786;2022-07-24T11:29:14;6.43;;;2.35;;
63087;SDS011;49173;43.164;27.786;2022-07-24T11:32:08;4.75;;;2.05;;
63087;SDS011;49173;43.164;27.786;2022-07-24T11:34:47;8.88;;;2.20;;
63087;SDS011;49173;43.164;27.786;2022-07-24T11:37:38;4.97;;;2.00;;
63087;SDS011;49173;43.164;27.786;2022-07-24T11:40:08;4.15;;;1.83;;
63087;SDS011;49173;43.164;27.786;2022-07-24T11:42:39;8.02;;;2.20;;
63087;SDS011;49173;43.164;27.786;2022-07-24T11:45:08;6.25;;;2.03;;
63087;SDS011;49173;43.164;27.786;2022-07-24T11:47:35;6.10;;;2.03;;
63087;SDS011;49173;43.164;27.786;2022-07-24T11:50:04;6.30;;;1.83;;
63087;SDS011;49173;43.164;27.786;2022-07-24T11:52:32;6.20;;;2.00;;
63087;SDS011;49173;43.164;27.786;2022-07-24T11:55:13;3.90;;;2.08;;
63087;SDS011;49173;43.164;27.786;2022-07-24T11:57:46;3.22;;;1.60;;
63087;SDS011;49173;43.164;27.786;2022-07-24T12:00:17;7.32;;;1.77;;
63087;SDS011;49173;43.164;27.786;2022-07-24T12:02:50;6.95;;;2.10;;
63087;SDS011;49173;43.164;27.786;2022-07-24T12:05:27;4.03;;;1.75;;
63087;SDS011;49173;43.164;27.786;2022-07-24T12:07:59;4.55;;;1.67;;
63087;SDS011;49173;43.164;27.786;2022-07-24T12:10:29;3.42;;;2.00;;
63087;SDS011;49173;43.164;27.786;2022-07-24T12:12:59;5.30;;;2.58;;
63087;SDS011;49173;43.164;27.786;2022-07-24T12:15:27;4.60;;;1.70;;
63087;SDS011;49173;43.164;27.786;2022-07-24T12:18:04;8.87;;;1.80;;
63087;SDS011;49173;43.164;27.786;2022-07-24T12:20:37;10.43;;;1.90;;
63087;SDS011;49173;43.164;27.786;2022-07-24T12:23:11;6.28;;;1.63;;
63087;SDS011;49173;43.164;27.786;2022-07-24T12:25:40;6.70;;;1.88;;
63087;SDS011;49173;43.164;27.786;2022-07-24T12:28:14;4.35;;;1.98;;
63087;SDS011;49173;43.164;27.786;2022-07-24T12:30:48;5.75;;;1.85;;
63087;SDS011;49173;43.164;27.786;2022-07-24T12:33:23;3.50;;;1.65;;
63087;SDS011;49173;43.164;27.786;2022-07-24T12:36:00;9.88;;;2.03;;
63087;SDS011;49173;43.164;27.786;2022-07-24T12:38:50;7.53;;;2.00;;
63087;SDS011;49173;43.164;27.786;2022-07-24T12:41:19;9.45;;;2.20;;
63087;SDS011;49173;43.164;27.786;2022-07-24T12:43:53;5.97;;;1.85;;
63087;SDS011;49173;43.164;27.786;2022-07-24T12:46:23;8.70;;;1.80;;
63087;SDS011;49173;43.164;27.786;2022-07-24T12:49:06;7.60;;;1.88;;
63087;SDS011;49173;43.164;27.786;2022-07-24T12:57:01;11.35;;;1.85;;
63087;SDS011;49173;43.164;27.786;2022-07-24T12:59:39;7.13;;;1.45;;
63087;SDS011;49173;43.164;27.786;2022-07-24T13:02:21;23.17;;;2.47;;
63087;SDS011;49173;43.164;27.786;2022-07-24T13:04:52;9.88;;;1.73;;
63087;SDS011;49173;43.164;27.786;2022-07-24T13:07:23;4.38;;;1.65;;
63087;SDS011;49173;43.164;27.786;2022-07-24T13:09:51;9.23;;;1.65;;
63087;SDS011;49173;43.164;27.786;2022-07-24T13:12:21;7.32;;;1.60;;
63087;SDS011;49173;43.164;27.786;2022-07-24T13:14:52;5.60;;;1.75;;
63087;SDS011;49173;43.164;27.786;2022-07-24T13:17:18;5.43;;;1.65;;
63087;SDS011;49173;43.164;27.786;2022-07-24T13:19:49;14.82;;;2.20;;
63087;SDS011;49173;43.164;27.786;2022-07-24T13:22:18;14.75;;;1.98;;
63087;SDS011;49173;43.164;27.786;2022-07-24T13:24:45;8.75;;;1.92;;
63087;SDS011;49173;43.164;27.786;2022-07-24T13:27:11;7.18;;;2.15;;
63087;SDS011;49173;43.164;27.786;2022-07-24T13:29:43;6.50;;;1.80;;
63087;SDS011;49173;43.164;27.786;2022-07-24T13:32:10;5.45;;;1.88;;
63087;SDS011;49173;43.164;27.786;2022-07-24T13:34:38;29.02;;;3.15;;
63087;SDS011;49173;43.164;27.786;2022-07-24T13:37:05;8.55;;;1.77;;
63087;SDS011;49173;43.164;27.786;2022-07-24T13:39:33;11.00;;;2.05;;
63087;SDS011;49173;43.164;27.786;2022-07-24T13:42:02;6.80;;;1.70;;
63087;SDS011;49173;43.164;27.786;2022-07-24T13:44:29;8.10;;;1.65;;
63087;SDS011;49173;43.164;27.786;2022-07-24T13:46:58;5.03;;;1.60;;
63087;SDS011;49173;43.164;27.786;2022-07-24T13:49:27;3.60;;;1.63;;
63087;SDS011;49173;43.164;27.786;2022-07-24T13:51:56;4.78;;;1.73;;
63087;SDS011;49173;43.164;27.786;2022-07-24T13:54:23;5.15;;;1.50;;
63087;SDS011;49173;43.164;27.786;2022-07-24T13:56:49;5.50;;;1.80;;
63087;SDS011;49173;43.164;27.786;2022-07-24T13:59:17;5.18;;;1.50;;
63087;SDS011;49173;43.164;27.786;2022-07-24T14:01:47;6.03;;;1.67;;
63087;SDS011;49173;43.164;27.786;2022-07-24T14:04:13;6.80;;;2.00;;
63087;SDS011;49173;43.164;27.786;2022-07-24T14:06:42;11.15;;;1.77;;
63087;SDS011;49173;43.164;27.786;2022-07-24T14:09:09;4.10;;;1.80;;
63087;SDS011;49173;43.164;27.786;2022-07-24T14:11:40;4.82;;;1.67;;
63087;SDS011;49173;43.164;27.786;2022-07-24T14:14:08;6.03;;;1.60;;
63087;SDS011;49173;43.164;27.786;2022-07-24T14:16:36;8.65;;;1.60;;
63087;SDS011;49173;43.164;27.786;2022-07-24T14:19:05;6.22;;;1.90;;
63087;SDS011;49173;43.164;27.786;2022-07-24T14:21:31;10.40;;;1.90;;
63087;SDS011;49173;43.164;27.786;2022-07-24T14:24:00;4.72;;;1.80;;
63087;SDS011;49173;43.164;27.786;2022-07-24T14:26:27;5.72;;;1.80;;
63087;SDS011;49173;43.164;27.786;2022-07-24T14:28:55;7.97;;;1.63;;
63087;SDS011;49173;43.164;27.786;2022-07-24T14:31:23;4.43;;;1.60;;
63087;SDS011;49173;43.164;27.786;2022-07-24T14:36:19;10.27;;;1.88;;
63087;SDS011;49173;43.164;27.786;2022-07-24T14:38:47;4.30;;;1.65;;
63087;SDS011;49173;43.164;27.786;2022-07-24T14:41:15;5.82;;;2.08;;
63087;SDS011;49173;43.164;27.786;2022-07-24T14:43:43;7.43;;;1.73;;
63087;SDS011;49173;43.164;27.786;2022-07-24T14:46:09;17.40;;;2.50;;
63087;SDS011;49173;43.164;27.786;2022-07-24T14:48:35;6.53;;;2.08;;
63087;SDS011;49173;43.164;27.786;2022-07-24T14:51:01;6.65;;;2.15;;
63087;SDS011;49173;43.164;27.786;2022-07-24T14:53:29;5.10;;;1.80;;
63087;SDS011;49173;43.164;27.786;2022-07-24T14:55:56;5.63;;;1.90;;
63087;SDS011;49173;43.164;27.786;2022-07-24T14:58:23;7.68;;;1.70;;
63087;SDS011;49173;43.164;27.786;2022-07-24T15:00:50;8.30;;;1.85;;
63087;SDS011;49173;43.164;27.786;2022-07-24T15:03:16;8.85;;;1.90;;
63087;SDS011;49173;43.164;27.786;2022-07-24T15:05:42;4.47;;;1.65;;
63087;SDS011;49173;43.164;27.786;2022-07-24T15:08:08;3.90;;;1.85;;
63087;SDS011;49173;43.164;27.786;2022-07-24T15:10:35;5.18;;;1.80;;
63087;SDS011;49173;43.164;27.786;2022-07-24T15:13:05;9.82;;;1.77;;
63087;SDS011;49173;43.164;27.786;2022-07-24T15:15:31;4.78;;;1.60;;
63087;SDS011;49173;43.164;27.786;2022-07-24T15:17:58;4.03;;;1.48;;
63087;SDS011;49173;43.164;27.786;2022-07-24T15:20:25;8.38;;;1.83;;
63087;SDS011;49173;43.164;27.786;2022-07-24T15:22:53;9.18;;;2.00;;
63087;SDS011;49173;43.164;27.786;2022-07-24T15:25:20;4.68;;;1.67;;
63087;SDS011;49173;43.164;27.786;2022-07-24T15:27:50;4.88;;;1.70;;
63087;SDS011;49173;43.164;27.786;2022-07-24T15:30:18;8.57;;;2.10;;
63087;SDS011;49173;43.164;27.786;2022-07-24T15:32:46;6.60;;;1.95;;
63087;SDS011;49173;43.164;27.786;2022-07-24T15:35:17;4.85;;;2.20;;
63087;SDS011;49173;43.164;27.786;2022-07-24T15:37:46;4.13;;;1.92;;
63087;SDS011;49173;43.164;27.786;2022-07-24T15:40:13;5.28;;;1.88;;
63087;SDS011;49173;43.164;27.786;2022-07-24T15:42:43;5.45;;;1.95;;
63087;SDS011;49173;43.164;27.786;2022-07-24T15:45:09;5.35;;;2.30;;
63087;SDS011;49173;43.164;27.786;2022-07-24T15:47:37;4.65;;;2.00;;
63087;SDS011;49173;43.164;27.786;2022-07-24T15:50:04;3.70;;;1.95;;
63087;SDS011;49173;43.164;27.786;2022-07-24T15:52:30;5.60;;;2.25;;
63087;SDS011;49173;43.164;27.786;2022-07-24T15:54:59;6.60;;;2.20;;
63087;SDS011;49173;43.164;27.786;2022-07-24T15:57:29;7.97;;;2.03;;
63087;SDS011;49173;43.164;27.786;2022-07-24T15:59:58;7.65;;;2.13;;
63087;SDS011;49173;43.164;27.786;2022-07-24T16:02:28;6.78;;;2.03;;
63087;SDS011;49173;43.164;27.786;2022-07-24T16:04:56;6.90;;;1.90;;
63087;SDS011;49173;43.164;27.786;2022-07-24T16:07:23;9.90;;;2.10;;
63087;SDS011;49173;43.164;27.786;2022-07-24T16:09:50;6.55;;;2.10;;
63087;SDS011;49173;43.164;27.786;2022-07-24T16:12:17;7.63;;;2.35;;
63087;SDS011;49173;43.164;27.786;2022-07-24T16:14:49;4.28;;;1.85;;
63087;SDS011;49173;43.164;27.786;2022-07-24T16:17:17;5.57;;;1.83;;
63087;SDS011;49173;43.164;27.786;2022-07-24T16:19:45;5.50;;;2.35;;
63087;SDS011;49173;43.164;27.786;2022-07-24T16:22:12;5.47;;;1.95;;
63087;SDS011;49173;43.164;27.786;2022-07-24T16:24:38;8.93;;;2.25;;
63087;SDS011;49173;43.164;27.786;2022-07-24T16:27:05;4.97;;;2.10;;
63087;SDS011;49173;43.164;27.786;2022-07-24T16:29:33;8.68;;;1.90;;
63087;SDS011;49173;43.164;27.786;2022-07-24T16:32:00;7.00;;;2.10;;
63087;SDS011;49173;43.164;27.786;2022-07-24T16:34:26;14.52;;;2.33;;
63087;SDS011;49173;43.164;27.786;2022-07-24T16:36:58;9.95;;;2.20;;
63087;SDS011;49173;43.164;27.786;2022-07-24T16:39:26;4.35;;;1.90;;
63087;SDS011;49173;43.164;27.786;2022-07-24T16:41:52;5.00;;;1.80;;
63087;SDS011;49173;43.164;27.786;2022-07-24T16:44:20;5.43;;;2.05;;
63087;SDS011;49173;43.164;27.786;2022-07-24T16:46:49;6.72;;;1.90;;
63087;SDS011;49173;43.164;27.786;2022-07-24T16:49:17;8.23;;;2.10;;
63087;SDS011;49173;43.164;27.786;2022-07-24T16:51:46;4.65;;;1.95;;
63087;SDS011;49173;43.164;27.786;2022-07-24T16:54:18;5.93;;;1.70;;
63087;SDS011;49173;43.164;27.786;2022-07-24T16:56:45;5.13;;;2.20;;
63087;SDS011;49173;43.164;27.786;2022-07-24T16:59:15;7.22;;;2.10;;
63087;SDS011;49173;43.164;27.786;2022-07-24T17:01:44;5.22;;;2.35;;
63087;SDS011;49173;43.164;27.786;2022-07-24T17:06:40;5.80;;;1.80;;
63087;SDS011;49173;43.164;27.786;2022-07-24T17:09:08;6.00;;;2.13;;
63087;SDS011;49173;43.164;27.786;2022-07-24T17:11:37;5.60;;;1.88;;
63087;SDS011;49173;43.164;27.786;2022-07-24T17:14:03;6.45;;;2.30;;
63087;SDS011;49173;43.164;27.786;2022-07-24T17:16:29;7.15;;;2.13;;
63087;SDS011;49173;43.164;27.786;2022-07-24T17:18:57;6.30;;;1.98;;
63087;SDS011;49173;43.164;27.786;2022-07-24T17:21:23;5.78;;;2.05;;
63087;SDS011;49173;43.164;27.786;2022-07-24T17:23:49;6.53;;;2.05;;
63087;SDS011;49173;43.164;27.786;2022-07-24T17:26:17;3.03;;;1.73;;
63087;SDS011;49173;43.164;27.786;2022-07-24T17:28:44;6.53;;;2.13;;
63087;SDS011;49173;43.164;27.786;2022-07-24T17:32:52;5.97;;;2.42;;
63087;SDS011;49173;43.164;27.786;2022-07-24T17:35:20;6.28;;;2.40;;
63087;SDS011;49173;43.164;27.786;2022-07-24T17:37:46;7.53;;;2.35;;
63087;SDS011;49173;43.164;27.786;2022-07-24T17:40:13;8.02;;;2.70;;
63087;SDS011;49173;43.164;27.786;2022-07-24T17:42:40;7.28;;;2.42;;
63087;SDS011;49173;43.164;27.786;2022-07-24T17:45:08;5.88;;;2.10;;
63087;SDS011;49173;43.164;27.786;2022-07-24T17:47:37;6.70;;;2.57;;
63087;SDS011;49173;43.164;27.786;2022-07-24T17:50:07;4.15;;;2.28;;
63087;SDS011;49173;43.164;27.786;2022-07-24T17:52:35;8.77;;;2.22;;
63087;SDS011;49173;43.164;27.786;2022-07-24T17:55:03;6.20;;;2.08;;
63087;SDS011;49173;43.164;27.786;2022-07-24T17:57:30;6.90;;;2.30;;
63087;SDS011;49173;43.164;27.786;2022-07-24T17:59:58;9.05;;;2.70;;
63087;SDS011;49173;43.164;27.786;2022-07-24T18:02:24;7.57;;;3.05;;
63087;SDS011;49173;43.164;27.786;2022-07-24T18:04:54;8.38;;;2.50;;
63087;SDS011;49173;43.164;27.786;2022-07-24T18:07:22;9.57;;;2.40;;
63087;SDS011;49173;43.164;27.786;2022-07-24T18:09:49;9.38;;;2.33;;
63087;SDS011;49173;43.164;27.786;2022-07-24T18:12:16;6.30;;;2.15;;
63087;SDS011;49173;43.164;27.786;2022-07-24T18:14:45;7.90;;;2.30;;
63087;SDS011;49173;43.164;27.786;2022-07-24T18:17:13;8.85;;;2.40;;
63087;SDS011;49173;43.164;27.786;2022-07-24T18:19:42;4.40;;;2.08;;
63087;SDS011;49173;43.164;27.786;2022-07-24T18:22:10;5.75;;;2.25;;
63087;SDS011;49173;43.164;27.786;2022-07-24T18:24:38;4.50;;;2.42;;
63087;SDS011;49173;43.164;27.786;2022-07-24T18:27:04;6.82;;;2.13;;
63087;SDS011;49173;43.164;27.786;2022-07-24T18:29:31;6.60;;;2.38;;
63087;SDS011;49173;43.164;27.786;2022-07-24T18:32:00;6.22;;;2.83;;
63087;SDS011;49173;43.164;27.786;2022-07-24T18:34:27;6.43;;;2.38;;
63087;SDS011;49173;43.164;27.786;2022-07-24T18:36:56;5.53;;;2.50;;
63087;SDS011;49173;43.164;27.786;2022-07-24T18:39:25;5.68;;;2.40;;
63087;SDS011;49173;43.164;27.786;2022-07-24T18:41:51;5.32;;;2.40;;
63087;SDS011;49173;43.164;27.786;2022-07-24T18:44:18;5.28;;;2.20;;
63087;SDS011;49173;43.164;27.786;2022-07-24T18:46:47;6.53;;;2.28;;
63087;SDS011;49173;43.164;27.786;2022-07-24T18:49:14;4.82;;;2.45;;
63087;SDS011;49173;43.164;27.786;2022-07-24T18:51:42;5.68;;;2.40;;
63087;SDS011;49173;43.164;27.786;2022-07-24T18:54:11;14.32;;;2.70;;
63087;SDS011;49173;43.164;27.786;2022-07-24T18:56:38;5.18;;;2.60;;
63087;SDS011;49173;43.164;27.786;2022-07-24T18:59:04;6.88;;;2.53;;
63087;SDS011;49173;43.164;27.786;2022-07-24T19:01:31;9.50;;;2.55;;
63087;SDS011;49173;43.164;27.786;2022-07-24T19:03:58;8.07;;;2.90;;
63087;SDS011;49173;43.164;27.786;2022-07-24T19:06:26;5.93;;;2.75;;
63087;SDS011;49173;43.164;27.786;2022-07-24T19:08:55;8.70;;;2.75;;
63087;SDS011;49173;43.164;27.786;2022-07-24T19:11:24;6.53;;;2.45;;
63087;SDS011;49173;43.164;27.786;2022-07-24T19:13:50;6.47;;;2.90;;
63087;SDS011;49173;43.164;27.786;2022-07-24T19:16:19;5.40;;;2.40;;
63087;SDS011;49173;43.164;27.786;2022-07-24T19:18:46;5.88;;;2.50;;
63087;SDS011;49173;43.164;27.786;2022-07-24T19:21:15;6.47;;;2.38;;
63087;SDS011;49173;43.164;27.786;2022-07-24T19:23:43;4.65;;;2.72;;
63087;SDS011;49173;43.164;27.786;2022-07-24T19:26:09;5.93;;;2.83;;
63087;SDS011;49173;43.164;27.786;2022-07-24T19:28:38;5.97;;;2.63;;
63087;SDS011;49173;43.164;27.786;2022-07-24T19:31:06;5.40;;;2.47;;
63087;SDS011;49173;43.164;27.786;2022-07-24T19:33:33;5.60;;;2.35;;
63087;SDS011;49173;43.164;27.786;2022-07-24T19:36:01;5.95;;;2.40;;
63087;SDS011;49173;43.164;27.786;2022-07-24T19:38:29;5.43;;;2.70;;
63087;SDS011;49173;43.164;27.786;2022-07-24T19:40:56;4.22;;;2.50;;
63087;SDS011;49173;43.164;27.786;2022-07-24T19:43:25;5.72;;;2.50;;
63087;SDS011;49173;43.164;27.786;2022-07-24T19:45:55;4.68;;;2.45;;
63087;SDS011;49173;43.164;27.786;2022-07-24T19:48:23;7.25;;;2.40;;
63087;SDS011;49173;43.164;27.786;2022-07-24T19:53:20;5.95;;;2.42;;
63087;SDS011;49173;43.164;27.786;2022-07-24T19:55:47;4.90;;;2.65;;
63087;SDS011;49173;43.164;27.786;2022-07-24T19:58:14;5.57;;;2.40;;
63087;SDS011;49173;43.164;27.786;2022-07-24T20:00:40;7.93;;;3.03;;
63087;SDS011;49173;43.164;27.786;2022-07-24T20:03:07;5.05;;;2.55;;
63087;SDS011;49173;43.164;27.786;2022-07-24T20:05:35;6.10;;;2.60;;
63087;SDS011;49173;43.164;27.786;2022-07-24T20:08:02;7.07;;;3.00;;
63087;SDS011;49173;43.164;27.786;2022-07-24T20:10:29;4.55;;;2.50;;
63087;SDS011;49173;43.164;27.786;2022-07-24T20:12:57;10.60;;;2.75;;
63087;SDS011;49173;43.164;27.786;2022-07-24T20:15:23;4.95;;;2.78;;